sensor_id;sensor_type;location;lat;lon;timestamp;temperature;humidity
16263;DHT22;8239;48.594;8.598;2024-01-30T00:00:07;-0.90;99.90
16263;DHT22;8239;48.594;8.598;2024-01-30T00:02:34;-1.00;99.90
16263;DHT22;8239;48.594;8.598;2024-01-30T00:05:02;-0.90;99.90
16263;DHT22;8239;48.594;8.598;2024-01-30T00:07:30;-0.90;99.90
16263;DHT22;8239;48.594;8.598;2024-01-30T00:09:57;-0.90;99.90
16263;DHT22;8239;48.594;8.598;2024-01-30T00:12:24;-0.90;99.90
16263;DHT22;8239;48.594;8.598;2024-01-30T00:14:53;-0.90;99.90
16263;DHT22;8239;48.594;8.598;2024-01-30T00:17:20;-0.90;99.90
16263;DHT22;8239;48.594;8.598;2024-01-30T00:19:47;-0.70;99.90
16263;DHT22;8239;48.594;8.598;2024-01-30T00:22:14;-0.70;99.90
16263;DHT22;8239;48.594;8.598;2024-01-30T00:24:41;-0.70;99.90
16263;DHT22;8239;48.594;8.598;2024-01-30T00:27:11;-0.80;99.90
16263;DHT22;8239;48.594;8.598;2024-01-30T00:29:38;-0.80;99.90
16263;DHT22;8239;48.594;8.598;2024-01-30T00:32:07;-0.80;99.90
16263;DHT22;8239;48.594;8.598;2024-01-30T00:34:33;-0.80;99.90
16263;DHT22;8239;48.594;8.598;2024-01-30T00:37:00;-0.80;99.90
16263;DHT22;8239;48.594;8.598;2024-01-30T00:39:27;-0.80;99.90
16263;DHT22;8239;48.594;8.598;2024-01-30T00:41:54;-0.80;99.90
16263;DHT22;8239;48.594;8.598;2024-01-30T00:44:21;-0.90;99.90
16263;DHT22;8239;48.594;8.598;2024-01-30T00:46:48;-0.80;99.90
16263;DHT22;8239;48.594;8.598;2024-01-30T00:49:16;-0.80;99.90
16263;DHT22;8239;48.594;8.598;2024-01-30T00:51:43;-0.90;99.90
16263;DHT22;8239;48.594;8.598;2024-01-30T00:54:10;-0.90;99.90
16263;DHT22;8239;48.594;8.598;2024-01-30T00:56:37;-0.90;99.90
16263;DHT22;8239;48.594;8.598;2024-01-30T00:59:04;-1.00;99.90
16263;DHT22;8239;48.594;8.598;2024-01-30T01:01:31;-1.00;99.90
16263;DHT22;8239;48.594;8.598;2024-01-30T01:03:58;-1.00;99.90
16263;DHT22;8239;48.594;8.598;2024-01-30T01:06:26;-1.00;99.90
16263;DHT22;8239;48.594;8.598;2024-01-30T01:08:53;-1.00;99.90
16263;DHT22;8239;48.594;8.598;2024-01-30T01:11:20;-1.20;99.90
16263;DHT22;8239;48.594;8.598;2024-01-30T01:13:47;-1.10;99.90
16263;DHT22;8239;48.594;8.598;2024-01-30T01:16:14;-1.10;99.90
16263;DHT22;8239;48.594;8.598;2024-01-30T01:18:41;-1.10;99.90
16263;DHT22;8239;48.594;8.598;2024-01-30T01:21:08;-1.10;99.90
16263;DHT22;8239;48.594;8.598;2024-01-30T01:23:36;-1.10;99.90
16263;DHT22;8239;48.594;8.598;2024-01-30T01:26:03;-1.20;99.90
16263;DHT22;8239;48.594;8.598;2024-01-30T01:28:31;-1.20;99.90
16263;DHT22;8239;48.594;8.598;2024-01-30T01:30:58;-1.20;99.90
16263;DHT22;8239;48.594;8.598;2024-01-30T01:33:30;-1.30;99.90
16263;DHT22;8239;48.594;8.598;2024-01-30T01:35:58;-1.30;99.90
16263;DHT22;8239;48.594;8.598;2024-01-30T01:38:25;-1.30;99.90
16263;DHT22;8239;48.594;8.598;2024-01-30T01:40:53;-1.30;99.90
16263;DHT22;8239;48.594;8.598;2024-01-30T01:43:20;-1.30;99.90
16263;DHT22;8239;48.594;8.598;2024-01-30T01:45:47;-1.20;99.90
16263;DHT22;8239;48.594;8.598;2024-01-30T01:48:14;-1.30;99.90
16263;DHT22;8239;48.594;8.598;2024-01-30T01:50:42;-1.20;99.90
16263;DHT22;8239;48.594;8.598;2024-01-30T01:53:09;-1.30;99.90
16263;DHT22;8239;48.594;8.598;2024-01-30T01:55:37;-1.20;99.90
16263;DHT22;8239;48.594;8.598;2024-01-30T01:58:05;-1.30;99.90
16263;DHT22;8239;48.594;8.598;2024-01-30T02:00:34;-1.40;99.90
16263;DHT22;8239;48.594;8.598;2024-01-30T02:03:05;-1.40;99.90
16263;DHT22;8239;48.594;8.598;2024-01-30T02:05:33;-1.40;99.90
16263;DHT22;8239;48.594;8.598;2024-01-30T02:08:00;-1.40;99.90
16263;DHT22;8239;48.594;8.598;2024-01-30T02:10:28;-1.50;99.90
16263;DHT22;8239;48.594;8.598;2024-01-30T02:12:55;-1.50;99.90
16263;DHT22;8239;48.594;8.598;2024-01-30T02:15:24;-1.50;99.90
16263;DHT22;8239;48.594;8.598;2024-01-30T02:17:51;-1.40;99.90
16263;DHT22;8239;48.594;8.598;2024-01-30T02:20:17;-1.40;99.90
16263;DHT22;8239;48.594;8.598;2024-01-30T02:22:46;-1.40;99.90
16263;DHT22;8239;48.594;8.598;2024-01-30T02:25:13;-1.40;99.90
16263;DHT22;8239;48.594;8.598;2024-01-30T02:27:40;-1.40;99.90
16263;DHT22;8239;48.594;8.598;2024-01-30T02:30:07;-1.40;99.90
16263;DHT22;8239;48.594;8.598;2024-01-30T02:32:34;-1.40;99.90
16263;DHT22;8239;48.594;8.598;2024-01-30T02:35:01;-1.40;99.90
16263;DHT22;8239;48.594;8.598;2024-01-30T02:37:28;-1.40;99.90
16263;DHT22;8239;48.594;8.598;2024-01-30T02:39:56;-1.40;99.90
16263;DHT22;8239;48.594;8.598;2024-01-30T02:42:23;-1.40;99.90
16263;DHT22;8239;48.594;8.598;2024-01-30T02:44:50;-1.40;99.90
16263;DHT22;8239;48.594;8.598;2024-01-30T02:47:17;-1.50;99.90
16263;DHT22;8239;48.594;8.598;2024-01-30T02:49:44;-1.50;99.90
16263;DHT22;8239;48.594;8.598;2024-01-30T02:52:11;-1.40;99.90
16263;DHT22;8239;48.594;8.598;2024-01-30T02:54:37;-1.50;99.90
16263;DHT22;8239;48.594;8.598;2024-01-30T02:57:06;-1.50;99.90
16263;DHT22;8239;48.594;8.598;2024-01-30T02:59:33;-1.50;99.90
16263;DHT22;8239;48.594;8.598;2024-01-30T03:02:01;-1.50;99.90
16263;DHT22;8239;48.594;8.598;2024-01-30T03:04:28;-1.50;99.90
16263;DHT22;8239;48.594;8.598;2024-01-30T03:06:55;-1.50;99.90
16263;DHT22;8239;48.594;8.598;2024-01-30T03:09:22;-1.50;99.90
16263;DHT22;8239;48.594;8.598;2024-01-30T03:11:49;-1.40;99.90
16263;DHT22;8239;48.594;8.598;2024-01-30T03:14:17;-1.30;99.90
16263;DHT22;8239;48.594;8.598;2024-01-30T03:16:44;-1.40;99.90
16263;DHT22;8239;48.594;8.598;2024-01-30T03:19:11;-1.30;99.90
16263;DHT22;8239;48.594;8.598;2024-01-30T03:21:38;-1.30;99.90
16263;DHT22;8239;48.594;8.598;2024-01-30T03:24:05;-1.10;99.90
16263;DHT22;8239;48.594;8.598;2024-01-30T03:26:32;-1.40;99.90
16263;DHT22;8239;48.594;8.598;2024-01-30T03:28:59;-1.40;99.90
16263;DHT22;8239;48.594;8.598;2024-01-30T03:31:27;-1.40;99.90
16263;DHT22;8239;48.594;8.598;2024-01-30T03:33:54;-1.40;99.90
16263;DHT22;8239;48.594;8.598;2024-01-30T03:36:21;-1.50;99.90
16263;DHT22;8239;48.594;8.598;2024-01-30T03:38:48;-1.40;99.90
16263;DHT22;8239;48.594;8.598;2024-01-30T03:41:15;-1.50;99.90
16263;DHT22;8239;48.594;8.598;2024-01-30T03:43:42;-1.50;99.90
16263;DHT22;8239;48.594;8.598;2024-01-30T03:46:09;-1.30;99.90
16263;DHT22;8239;48.594;8.598;2024-01-30T03:48:39;-1.50;99.90
16263;DHT22;8239;48.594;8.598;2024-01-30T03:51:06;-1.40;99.90
16263;DHT22;8239;48.594;8.598;2024-01-30T03:53:33;-1.50;99.90
16263;DHT22;8239;48.594;8.598;2024-01-30T03:56:00;-1.50;99.90
16263;DHT22;8239;48.594;8.598;2024-01-30T03:58:28;-1.40;99.90
16263;DHT22;8239;48.594;8.598;2024-01-30T04:00:55;-1.40;99.90
16263;DHT22;8239;48.594;8.598;2024-01-30T04:03:22;-1.40;99.90
16263;DHT22;8239;48.594;8.598;2024-01-30T04:05:51;-1.50;99.90
16263;DHT22;8239;48.594;8.598;2024-01-30T04:08:18;-1.50;99.90
16263;DHT22;8239;48.594;8.598;2024-01-30T04:10:46;-1.50;99.90
16263;DHT22;8239;48.594;8.598;2024-01-30T04:13:13;-1.50;99.90
16263;DHT22;8239;48.594;8.598;2024-01-30T04:15:40;-1.50;99.90
16263;DHT22;8239;48.594;8.598;2024-01-30T04:18:07;-1.40;99.90
16263;DHT22;8239;48.594;8.598;2024-01-30T04:20:34;-1.20;99.90
16263;DHT22;8239;48.594;8.598;2024-01-30T04:23:02;-1.40;99.90
16263;DHT22;8239;48.594;8.598;2024-01-30T04:25:29;-1.40;99.90
16263;DHT22;8239;48.594;8.598;2024-01-30T04:27:56;-1.40;99.90
16263;DHT22;8239;48.594;8.598;2024-01-30T04:30:23;-1.40;99.90
16263;DHT22;8239;48.594;8.598;2024-01-30T04:32:50;-1.40;99.90
16263;DHT22;8239;48.594;8.598;2024-01-30T04:35:17;-1.40;99.90
16263;DHT22;8239;48.594;8.598;2024-01-30T04:37:46;-1.40;99.90
16263;DHT22;8239;48.594;8.598;2024-01-30T04:40:17;-1.40;99.90
16263;DHT22;8239;48.594;8.598;2024-01-30T04:42:44;-1.50;99.90
16263;DHT22;8239;48.594;8.598;2024-01-30T04:45:11;-1.40;99.90
16263;DHT22;8239;48.594;8.598;2024-01-30T04:47:38;-1.50;99.90
16263;DHT22;8239;48.594;8.598;2024-01-30T04:50:06;-1.50;99.90
16263;DHT22;8239;48.594;8.598;2024-01-30T04:52:34;-1.50;99.90
16263;DHT22;8239;48.594;8.598;2024-01-30T04:55:01;-1.50;99.90
16263;DHT22;8239;48.594;8.598;2024-01-30T04:57:29;-1.50;99.90
16263;DHT22;8239;48.594;8.598;2024-01-30T04:59:59;-1.40;99.90
16263;DHT22;8239;48.594;8.598;2024-01-30T05:02:26;-1.40;99.90
16263;DHT22;8239;48.594;8.598;2024-01-30T05:04:53;-1.40;99.90
16263;DHT22;8239;48.594;8.598;2024-01-30T05:07:20;-1.40;99.90
16263;DHT22;8239;48.594;8.598;2024-01-30T05:09:47;-1.40;99.90
16263;DHT22;8239;48.594;8.598;2024-01-30T05:12:14;-1.40;99.90
16263;DHT22;8239;48.594;8.598;2024-01-30T05:14:43;-1.40;99.90
16263;DHT22;8239;48.594;8.598;2024-01-30T05:17:10;-1.40;99.90
16263;DHT22;8239;48.594;8.598;2024-01-30T05:19:38;-1.40;99.90
16263;DHT22;8239;48.594;8.598;2024-01-30T05:22:05;-1.40;99.90
16263;DHT22;8239;48.594;8.598;2024-01-30T05:24:33;-1.40;99.90
16263;DHT22;8239;48.594;8.598;2024-01-30T05:26:59;-1.40;99.90
16263;DHT22;8239;48.594;8.598;2024-01-30T05:29:27;-1.30;99.90
16263;DHT22;8239;48.594;8.598;2024-01-30T05:31:55;-1.40;99.90
16263;DHT22;8239;48.594;8.598;2024-01-30T05:34:22;-1.40;99.90
16263;DHT22;8239;48.594;8.598;2024-01-30T05:36:49;-1.50;99.90
16263;DHT22;8239;48.594;8.598;2024-01-30T05:39:16;-1.50;99.90
16263;DHT22;8239;48.594;8.598;2024-01-30T05:41:43;-1.50;99.90
16263;DHT22;8239;48.594;8.598;2024-01-30T05:44:10;-1.50;99.90
16263;DHT22;8239;48.594;8.598;2024-01-30T05:46:37;-1.60;99.90
16263;DHT22;8239;48.594;8.598;2024-01-30T05:49:05;-1.60;99.90
16263;DHT22;8239;48.594;8.598;2024-01-30T05:51:32;-1.60;99.90
16263;DHT22;8239;48.594;8.598;2024-01-30T05:53:59;-1.60;99.90
16263;DHT22;8239;48.594;8.598;2024-01-30T05:56:29;-1.60;99.90
16263;DHT22;8239;48.594;8.598;2024-01-30T05:58:55;-1.60;99.90
16263;DHT22;8239;48.594;8.598;2024-01-30T06:01:22;-1.60;99.90
16263;DHT22;8239;48.594;8.598;2024-01-30T06:03:49;-1.60;99.90
16263;DHT22;8239;48.594;8.598;2024-01-30T06:06:18;-1.60;99.90
16263;DHT22;8239;48.594;8.598;2024-01-30T06:08:44;-1.60;99.90
16263;DHT22;8239;48.594;8.598;2024-01-30T06:11:11;-1.70;99.90
16263;DHT22;8239;48.594;8.598;2024-01-30T06:13:38;-1.70;99.90
16263;DHT22;8239;48.594;8.598;2024-01-30T06:16:09;-1.70;99.90
16263;DHT22;8239;48.594;8.598;2024-01-30T06:18:36;-1.70;99.90
16263;DHT22;8239;48.594;8.598;2024-01-30T06:21:04;-1.70;99.90
16263;DHT22;8239;48.594;8.598;2024-01-30T06:23:33;-1.70;99.90
16263;DHT22;8239;48.594;8.598;2024-01-30T06:26:00;-1.70;99.90
16263;DHT22;8239;48.594;8.598;2024-01-30T06:28:26;-1.70;99.90
16263;DHT22;8239;48.594;8.598;2024-01-30T06:30:53;-1.80;99.90
16263;DHT22;8239;48.594;8.598;2024-01-30T06:33:20;-1.70;99.90
16263;DHT22;8239;48.594;8.598;2024-01-30T06:35:47;-1.80;99.90
16263;DHT22;8239;48.594;8.598;2024-01-30T06:38:14;-1.80;99.90
16263;DHT22;8239;48.594;8.598;2024-01-30T06:40:42;-1.80;99.90
16263;DHT22;8239;48.594;8.598;2024-01-30T06:43:09;-1.90;99.90
16263;DHT22;8239;48.594;8.598;2024-01-30T06:45:36;-1.80;99.90
16263;DHT22;8239;48.594;8.598;2024-01-30T06:48:04;-1.70;99.90
16263;DHT22;8239;48.594;8.598;2024-01-30T06:50:31;-1.70;99.90
16263;DHT22;8239;48.594;8.598;2024-01-30T06:52:58;-1.60;99.90
16263;DHT22;8239;48.594;8.598;2024-01-30T06:55:25;-1.60;99.90
16263;DHT22;8239;48.594;8.598;2024-01-30T06:57:53;-1.50;99.90
16263;DHT22;8239;48.594;8.598;2024-01-30T07:00:20;-1.50;99.90
16263;DHT22;8239;48.594;8.598;2024-01-30T07:02:48;-1.40;99.90
16263;DHT22;8239;48.594;8.598;2024-01-30T07:05:15;-1.40;99.90
16263;DHT22;8239;48.594;8.598;2024-01-30T07:07:43;-1.30;99.90
16263;DHT22;8239;48.594;8.598;2024-01-30T07:10:10;-1.30;99.90
16263;DHT22;8239;48.594;8.598;2024-01-30T07:12:37;-1.20;99.90
16263;DHT22;8239;48.594;8.598;2024-01-30T07:15:06;-1.00;99.90
16263;DHT22;8239;48.594;8.598;2024-01-30T07:17:34;-0.70;99.90
16263;DHT22;8239;48.594;8.598;2024-01-30T07:20:01;-0.10;99.90
16263;DHT22;8239;48.594;8.598;2024-01-30T07:22:29;0.40;99.90
16263;DHT22;8239;48.594;8.598;2024-01-30T07:24:56;0.80;99.90
16263;DHT22;8239;48.594;8.598;2024-01-30T07:27:23;1.20;99.90
16263;DHT22;8239;48.594;8.598;2024-01-30T07:29:50;1.60;99.90
16263;DHT22;8239;48.594;8.598;2024-01-30T07:32:19;1.90;99.90
16263;DHT22;8239;48.594;8.598;2024-01-30T07:34:46;2.20;99.90
16263;DHT22;8239;48.594;8.598;2024-01-30T07:37:13;2.40;99.90
16263;DHT22;8239;48.594;8.598;2024-01-30T07:39:41;2.60;99.90
16263;DHT22;8239;48.594;8.598;2024-01-30T07:42:08;2.70;99.90
16263;DHT22;8239;48.594;8.598;2024-01-30T07:44:35;3.10;99.90
16263;DHT22;8239;48.594;8.598;2024-01-30T07:47:02;3.40;99.90
16263;DHT22;8239;48.594;8.598;2024-01-30T07:49:33;3.40;99.90
16263;DHT22;8239;48.594;8.598;2024-01-30T07:52:00;3.50;99.90
16263;DHT22;8239;48.594;8.598;2024-01-30T07:54:30;3.70;99.90
16263;DHT22;8239;48.594;8.598;2024-01-30T07:56:59;3.90;99.90
16263;DHT22;8239;48.594;8.598;2024-01-30T07:59:26;3.90;99.90
16263;DHT22;8239;48.594;8.598;2024-01-30T08:01:53;3.90;99.90
16263;DHT22;8239;48.594;8.598;2024-01-30T08:04:20;4.20;99.90
16263;DHT22;8239;48.594;8.598;2024-01-30T08:06:48;4.40;99.90
16263;DHT22;8239;48.594;8.598;2024-01-30T08:09:15;4.50;99.90
16263;DHT22;8239;48.594;8.598;2024-01-30T08:11:42;4.50;99.90
16263;DHT22;8239;48.594;8.598;2024-01-30T08:14:09;4.50;99.90
16263;DHT22;8239;48.594;8.598;2024-01-30T08:16:35;4.40;99.90
16263;DHT22;8239;48.594;8.598;2024-01-30T08:19:03;4.30;99.90
16263;DHT22;8239;48.594;8.598;2024-01-30T08:21:30;4.30;99.90
16263;DHT22;8239;48.594;8.598;2024-01-30T08:24:03;4.30;99.90
16263;DHT22;8239;48.594;8.598;2024-01-30T08:26:30;4.60;99.90
16263;DHT22;8239;48.594;8.598;2024-01-30T08:28:57;5.00;99.90
16263;DHT22;8239;48.594;8.598;2024-01-30T08:31:24;5.60;99.60
16263;DHT22;8239;48.594;8.598;2024-01-30T08:33:51;6.40;98.60
16263;DHT22;8239;48.594;8.598;2024-01-30T08:36:18;7.60;95.30
16263;DHT22;8239;48.594;8.598;2024-01-30T08:38:45;8.70;91.40
16263;DHT22;8239;48.594;8.598;2024-01-30T08:41:14;9.90;84.00
16263;DHT22;8239;48.594;8.598;2024-01-30T08:43:41;11.00;76.50
16263;DHT22;8239;48.594;8.598;2024-01-30T08:46:08;11.80;71.00
16263;DHT22;8239;48.594;8.598;2024-01-30T08:48:36;12.00;66.50
16263;DHT22;8239;48.594;8.598;2024-01-30T08:51:03;11.60;67.60
16263;DHT22;8239;48.594;8.598;2024-01-30T08:53:34;11.30;67.20
16263;DHT22;8239;48.594;8.598;2024-01-30T08:56:01;10.90;67.70
16263;DHT22;8239;48.594;8.598;2024-01-30T08:58:29;10.50;68.60
16263;DHT22;8239;48.594;8.598;2024-01-30T09:00:56;10.20;69.90
16263;DHT22;8239;48.594;8.598;2024-01-30T09:03:23;9.70;71.80
16263;DHT22;8239;48.594;8.598;2024-01-30T09:05:50;9.40;73.30
16263;DHT22;8239;48.594;8.598;2024-01-30T09:08:25;9.00;74.50
16263;DHT22;8239;48.594;8.598;2024-01-30T09:10:52;8.70;75.70
16263;DHT22;8239;48.594;8.598;2024-01-30T09:13:18;8.60;76.80
16263;DHT22;8239;48.594;8.598;2024-01-30T09:15:47;8.40;78.10
16263;DHT22;8239;48.594;8.598;2024-01-30T09:18:14;8.40;79.20
16263;DHT22;8239;48.594;8.598;2024-01-30T09:20:41;8.50;79.80
16263;DHT22;8239;48.594;8.598;2024-01-30T09:23:08;8.40;80.70
16263;DHT22;8239;48.594;8.598;2024-01-30T09:25:36;8.40;80.60
16263;DHT22;8239;48.594;8.598;2024-01-30T09:28:03;8.30;80.80
16263;DHT22;8239;48.594;8.598;2024-01-30T09:30:30;8.40;80.70
16263;DHT22;8239;48.594;8.598;2024-01-30T09:32:59;8.20;81.40
16263;DHT22;8239;48.594;8.598;2024-01-30T09:35:26;8.30;82.60
16263;DHT22;8239;48.594;8.598;2024-01-30T09:37:52;8.30;82.90
16263;DHT22;8239;48.594;8.598;2024-01-30T09:40:19;8.50;83.10
16263;DHT22;8239;48.594;8.598;2024-01-30T09:42:47;8.60;83.10
16263;DHT22;8239;48.594;8.598;2024-01-30T09:45:17;8.80;83.50
16263;DHT22;8239;48.594;8.598;2024-01-30T09:47:45;9.00;83.50
16263;DHT22;8239;48.594;8.598;2024-01-30T09:50:15;9.30;83.10
16263;DHT22;8239;48.594;8.598;2024-01-30T09:52:42;9.50;82.60
16263;DHT22;8239;48.594;8.598;2024-01-30T09:55:09;9.90;82.30
16263;DHT22;8239;48.594;8.598;2024-01-30T09:57:37;10.30;79.50
16263;DHT22;8239;48.594;8.598;2024-01-30T10:00:05;10.80;78.10
16263;DHT22;8239;48.594;8.598;2024-01-30T10:02:34;11.30;77.30
16263;DHT22;8239;48.594;8.598;2024-01-30T10:05:01;11.70;74.30
16263;DHT22;8239;48.594;8.598;2024-01-30T10:07:30;12.30;73.30
16263;DHT22;8239;48.594;8.598;2024-01-30T10:09:57;12.90;71.00
16263;DHT22;8239;48.594;8.598;2024-01-30T10:12:25;13.40;68.70
16263;DHT22;8239;48.594;8.598;2024-01-30T10:14:53;14.10;67.10
16263;DHT22;8239;48.594;8.598;2024-01-30T10:17:20;15.00;65.20
16263;DHT22;8239;48.594;8.598;2024-01-30T10:19:47;15.60;62.80
16263;DHT22;8239;48.594;8.598;2024-01-30T10:22:14;16.30;61.40
16263;DHT22;8239;48.594;8.598;2024-01-30T10:24:43;17.00;59.60
16263;DHT22;8239;48.594;8.598;2024-01-30T10:27:10;17.70;57.40
16263;DHT22;8239;48.594;8.598;2024-01-30T10:29:37;17.80;55.70
16263;DHT22;8239;48.594;8.598;2024-01-30T10:32:05;17.60;56.20
16263;DHT22;8239;48.594;8.598;2024-01-30T10:34:33;17.50;57.10
16263;DHT22;8239;48.594;8.598;2024-01-30T10:37:07;17.30;57.40
16263;DHT22;8239;48.594;8.598;2024-01-30T10:39:38;17.20;58.50
16263;DHT22;8239;48.594;8.598;2024-01-30T10:42:11;16.90;60.00
16263;DHT22;8239;48.594;8.598;2024-01-30T10:44:44;16.70;59.60
16263;DHT22;8239;48.594;8.598;2024-01-30T10:47:18;16.60;59.50
16263;DHT22;8239;48.594;8.598;2024-01-30T10:49:47;16.40;59.00
16263;DHT22;8239;48.594;8.598;2024-01-30T10:52:14;16.30;59.90
16263;DHT22;8239;48.594;8.598;2024-01-30T10:54:44;16.10;61.40
16263;DHT22;8239;48.594;8.598;2024-01-30T10:57:13;15.60;58.90
16263;DHT22;8239;48.594;8.598;2024-01-30T10:59:42;15.20;59.50
16263;DHT22;8239;48.594;8.598;2024-01-30T11:02:11;14.70;61.50
16263;DHT22;8239;48.594;8.598;2024-01-30T11:04:38;14.50;62.50
16263;DHT22;8239;48.594;8.598;2024-01-30T11:07:16;14.60;63.90
16263;DHT22;8239;48.594;8.598;2024-01-30T11:09:49;14.60;63.70
16263;DHT22;8239;48.594;8.598;2024-01-30T11:12:22;14.30;57.90
16263;DHT22;8239;48.594;8.598;2024-01-30T11:14:50;14.00;59.10
16263;DHT22;8239;48.594;8.598;2024-01-30T11:17:17;14.00;57.50
16263;DHT22;8239;48.594;8.598;2024-01-30T11:19:44;13.70;57.50
16263;DHT22;8239;48.594;8.598;2024-01-30T11:22:13;13.70;57.30
16263;DHT22;8239;48.594;8.598;2024-01-30T11:24:40;13.70;56.00
16263;DHT22;8239;48.594;8.598;2024-01-30T11:27:08;13.60;55.80
16263;DHT22;8239;48.594;8.598;2024-01-30T11:29:37;13.80;54.90
16263;DHT22;8239;48.594;8.598;2024-01-30T11:32:05;13.80;55.20
16263;DHT22;8239;48.594;8.598;2024-01-30T11:34:33;14.00;55.20
16263;DHT22;8239;48.594;8.598;2024-01-30T11:37:03;14.20;54.20
16263;DHT22;8239;48.594;8.598;2024-01-30T11:39:36;14.80;54.00
16263;DHT22;8239;48.594;8.598;2024-01-30T11:42:06;15.50;52.60
16263;DHT22;8239;48.594;8.598;2024-01-30T11:44:34;16.30;51.80
16263;DHT22;8239;48.594;8.598;2024-01-30T11:47:03;17.50;49.20
16263;DHT22;8239;48.594;8.598;2024-01-30T11:49:30;18.50;47.70
16263;DHT22;8239;48.594;8.598;2024-01-30T11:52:11;19.20;46.00
16263;DHT22;8239;48.594;8.598;2024-01-30T11:54:40;19.10;45.00
16263;DHT22;8239;48.594;8.598;2024-01-30T11:57:07;19.20;45.30
16263;DHT22;8239;48.594;8.598;2024-01-30T11:59:34;19.40;45.00
16263;DHT22;8239;48.594;8.598;2024-01-30T12:02:02;19.60;44.00
16263;DHT22;8239;48.594;8.598;2024-01-30T12:04:29;19.90;43.30
16263;DHT22;8239;48.594;8.598;2024-01-30T12:06:56;20.70;42.60
16263;DHT22;8239;48.594;8.598;2024-01-30T12:09:23;21.40;41.30
16263;DHT22;8239;48.594;8.598;2024-01-30T12:11:50;22.00;41.20
16263;DHT22;8239;48.594;8.598;2024-01-30T12:14:17;23.10;40.20
16263;DHT22;8239;48.594;8.598;2024-01-30T12:16:48;24.30;38.00
16263;DHT22;8239;48.594;8.598;2024-01-30T12:19:23;25.00;37.10
16263;DHT22;8239;48.594;8.598;2024-01-30T12:21:54;25.60;35.80
16263;DHT22;8239;48.594;8.598;2024-01-30T12:24:22;26.10;35.50
16263;DHT22;8239;48.594;8.598;2024-01-30T12:26:49;26.10;33.70
16263;DHT22;8239;48.594;8.598;2024-01-30T12:29:16;26.40;33.10
16263;DHT22;8239;48.594;8.598;2024-01-30T12:31:43;26.70;33.20
16263;DHT22;8239;48.594;8.598;2024-01-30T12:34:13;26.50;33.20
16263;DHT22;8239;48.594;8.598;2024-01-30T12:36:42;26.10;32.50
16263;DHT22;8239;48.594;8.598;2024-01-30T12:39:11;25.70;34.50
16263;DHT22;8239;48.594;8.598;2024-01-30T12:41:40;25.50;34.80
16263;DHT22;8239;48.594;8.598;2024-01-30T12:44:07;25.30;34.40
16263;DHT22;8239;48.594;8.598;2024-01-30T12:46:34;25.10;35.10
16263;DHT22;8239;48.594;8.598;2024-01-30T12:49:01;25.10;33.90
16263;DHT22;8239;48.594;8.598;2024-01-30T12:51:28;25.30;35.20
16263;DHT22;8239;48.594;8.598;2024-01-30T12:53:57;25.80;34.10
16263;DHT22;8239;48.594;8.598;2024-01-30T12:56:24;25.60;33.40
16263;DHT22;8239;48.594;8.598;2024-01-30T12:58:51;25.80;34.20
16263;DHT22;8239;48.594;8.598;2024-01-30T13:01:18;26.00;33.70
16263;DHT22;8239;48.594;8.598;2024-01-30T13:03:45;25.90;33.20
16263;DHT22;8239;48.594;8.598;2024-01-30T13:06:12;25.30;33.30
16263;DHT22;8239;48.594;8.598;2024-01-30T13:08:39;25.30;35.10
16263;DHT22;8239;48.594;8.598;2024-01-30T13:11:08;25.80;35.00
16263;DHT22;8239;48.594;8.598;2024-01-30T13:13:34;26.10;34.60
16263;DHT22;8239;48.594;8.598;2024-01-30T13:16:02;26.10;34.80
16263;DHT22;8239;48.594;8.598;2024-01-30T13:18:29;25.60;33.70
16263;DHT22;8239;48.594;8.598;2024-01-30T13:20:56;25.20;35.10
16263;DHT22;8239;48.594;8.598;2024-01-30T13:23:24;25.40;35.70
16263;DHT22;8239;48.594;8.598;2024-01-30T13:25:51;25.50;34.60
16263;DHT22;8239;48.594;8.598;2024-01-30T13:28:20;25.00;35.70
16263;DHT22;8239;48.594;8.598;2024-01-30T13:30:48;25.00;36.20
16263;DHT22;8239;48.594;8.598;2024-01-30T13:33:15;24.70;35.30
16263;DHT22;8239;48.594;8.598;2024-01-30T13:35:42;24.20;35.80
16263;DHT22;8239;48.594;8.598;2024-01-30T13:38:09;23.60;37.00
16263;DHT22;8239;48.594;8.598;2024-01-30T13:40:36;23.40;37.90
16263;DHT22;8239;48.594;8.598;2024-01-30T13:43:03;23.30;37.30
16263;DHT22;8239;48.594;8.598;2024-01-30T13:45:31;23.00;37.70
16263;DHT22;8239;48.594;8.598;2024-01-30T13:47:59;22.60;38.70
16263;DHT22;8239;48.594;8.598;2024-01-30T13:50:26;22.70;39.10
16263;DHT22;8239;48.594;8.598;2024-01-30T13:52:53;22.30;39.00
16263;DHT22;8239;48.594;8.598;2024-01-30T13:55:20;22.00;40.10
16263;DHT22;8239;48.594;8.598;2024-01-30T13:57:47;21.70;39.60
16263;DHT22;8239;48.594;8.598;2024-01-30T14:00:14;21.20;40.00
16263;DHT22;8239;48.594;8.598;2024-01-30T14:02:43;20.40;41.40
16263;DHT22;8239;48.594;8.598;2024-01-30T14:05:10;20.10;41.70
16263;DHT22;8239;48.594;8.598;2024-01-30T14:07:37;19.60;42.70
16263;DHT22;8239;48.594;8.598;2024-01-30T14:10:07;19.20;43.30
16263;DHT22;8239;48.594;8.598;2024-01-30T14:12:34;18.80;44.80
16263;DHT22;8239;48.594;8.598;2024-01-30T14:15:00;18.20;45.20
16263;DHT22;8239;48.594;8.598;2024-01-30T14:17:27;17.60;46.10
16263;DHT22;8239;48.594;8.598;2024-01-30T14:19:56;16.90;47.90
16263;DHT22;8239;48.594;8.598;2024-01-30T14:22:25;16.30;49.50
16263;DHT22;8239;48.594;8.598;2024-01-30T14:24:52;15.80;50.50
16263;DHT22;8239;48.594;8.598;2024-01-30T14:27:19;15.40;51.50
16263;DHT22;8239;48.594;8.598;2024-01-30T14:29:46;15.10;52.50
16263;DHT22;8239;48.594;8.598;2024-01-30T14:32:13;14.80;53.40
16263;DHT22;8239;48.594;8.598;2024-01-30T14:34:40;14.50;54.30
16263;DHT22;8239;48.594;8.598;2024-01-30T14:37:09;14.10;55.10
16263;DHT22;8239;48.594;8.598;2024-01-30T14:39:36;13.80;55.80
16263;DHT22;8239;48.594;8.598;2024-01-30T14:42:03;13.50;56.30
16263;DHT22;8239;48.594;8.598;2024-01-30T14:44:30;13.30;57.10
16263;DHT22;8239;48.594;8.598;2024-01-30T14:46:58;13.10;57.70
16263;DHT22;8239;48.594;8.598;2024-01-30T14:49:25;12.90;58.00
16263;DHT22;8239;48.594;8.598;2024-01-30T14:51:52;12.60;59.10
16263;DHT22;8239;48.594;8.598;2024-01-30T14:54:20;12.50;59.80
16263;DHT22;8239;48.594;8.598;2024-01-30T14:56:47;12.30;60.00
16263;DHT22;8239;48.594;8.598;2024-01-30T14:59:14;12.20;60.10
16263;DHT22;8239;48.594;8.598;2024-01-30T15:01:41;12.20;60.70
16263;DHT22;8239;48.594;8.598;2024-01-30T15:04:08;12.10;61.10
16263;DHT22;8239;48.594;8.598;2024-01-30T15:06:35;12.00;61.20
16263;DHT22;8239;48.594;8.598;2024-01-30T15:09:02;11.90;61.70
16263;DHT22;8239;48.594;8.598;2024-01-30T15:11:32;11.80;62.20
16263;DHT22;8239;48.594;8.598;2024-01-30T15:14:01;11.70;62.50
16263;DHT22;8239;48.594;8.598;2024-01-30T15:16:28;11.60;63.30
16263;DHT22;8239;48.594;8.598;2024-01-30T15:18:55;11.60;63.70
16263;DHT22;8239;48.594;8.598;2024-01-30T15:21:22;11.50;63.70
16263;DHT22;8239;48.594;8.598;2024-01-30T15:23:49;11.40;64.20
16263;DHT22;8239;48.594;8.598;2024-01-30T15:26:16;11.40;64.50
16263;DHT22;8239;48.594;8.598;2024-01-30T15:28:44;11.30;64.90
16263;DHT22;8239;48.594;8.598;2024-01-30T15:31:11;11.20;65.00
16263;DHT22;8239;48.594;8.598;2024-01-30T15:33:38;11.20;65.70
16263;DHT22;8239;48.594;8.598;2024-01-30T15:36:06;11.10;66.40
16263;DHT22;8239;48.594;8.598;2024-01-30T15:38:33;10.90;67.20
16263;DHT22;8239;48.594;8.598;2024-01-30T15:41:00;10.90;67.60
16263;DHT22;8239;48.594;8.598;2024-01-30T15:43:27;10.80;68.00
16263;DHT22;8239;48.594;8.598;2024-01-30T15:45:55;10.70;68.00
16263;DHT22;8239;48.594;8.598;2024-01-30T15:48:22;10.60;68.20